createdAt,value
2023-02-08T00:02:17.686Z,25.67
2023-02-08T00:04:44.473Z,25.60
2023-02-08T00:07:11.284Z,26.17
2023-02-08T00:09:38.366Z,26.27
2023-02-08T00:12:05.235Z,24.10
2023-02-08T00:14:31.853Z,20.60
2023-02-08T00:16:58.480Z,22.47
2023-02-08T00:19:25.116Z,22.33
2023-02-08T00:21:51.788Z,21.33
2023-02-08T00:24:18.418Z,23.60
2023-02-08T00:26:45.042Z,23.13
2023-02-08T00:29:11.668Z,22.80
2023-02-08T00:31:38.679Z,27.05
2023-02-08T00:34:05.596Z,21.30
2023-02-08T00:36:32.344Z,24.07
2023-02-08T00:38:59.028Z,21.60
2023-02-08T00:41:25.667Z,25.03
2023-02-08T00:43:52.354Z,23.37
2023-02-08T00:46:20.477Z,24.60
2023-02-08T00:48:49.611Z,26.50
2023-02-08T00:51:16.352Z,23.13
2023-02-08T00:53:45.177Z,21.63
2023-02-08T00:56:13.774Z,25.50
2023-02-08T00:58:40.746Z,24.77
2023-02-08T01:01:08.334Z,26.10
2023-02-08T01:03:36.991Z,25.13
2023-02-08T01:06:07.041Z,23.53
2023-02-08T01:08:34.028Z,24.25
2023-02-08T01:11:09.875Z,24.47
2023-02-08T01:13:38.951Z,25.80
2023-02-08T01:16:19.423Z,25.90
2023-02-08T01:18:48.776Z,24.17
2023-02-08T01:21:22.009Z,22.33
2023-02-08T01:23:49.318Z,22.87
2023-02-08T01:26:17.889Z,22.93
2023-02-08T01:28:46.160Z,26.77
2023-02-08T01:31:19.652Z,25.57
2023-02-08T01:33:46.320Z,25.73
2023-02-08T01:36:13.395Z,25.20
2023-02-08T01:38:42.633Z,25.33
2023-02-08T01:41:15.198Z,23.70
2023-02-08T01:44:06.767Z,24.13
2023-02-08T01:46:35.943Z,24.07
2023-02-08T01:49:34.642Z,27.43
2023-02-08T01:52:17.737Z,26.07
2023-02-08T01:55:00.280Z,22.50
2023-02-08T01:57:28.121Z,23.63
2023-02-08T02:00:02.982Z,22.20
2023-02-08T02:02:41.586Z,23.57
2023-02-08T02:05:08.780Z,23.60
2023-02-08T02:07:36.182Z,23.03
2023-02-08T02:10:22.712Z,21.40
2023-02-08T02:12:50.621Z,20.23
2023-02-08T02:15:17.646Z,24.53
2023-02-08T02:17:44.699Z,21.40
2023-02-08T02:20:38.162Z,23.53
2023-02-08T02:23:09.150Z,22.33
2023-02-08T02:25:35.763Z,24.73
2023-02-08T02:28:08.535Z,23.30
2023-02-08T02:30:50.201Z,23.77
2023-02-08T02:33:31.584Z,24.97
2023-02-08T02:36:09.937Z,22.30
2023-02-08T02:39:05.539Z,21.60
2023-02-08T02:42:12.661Z,23.73
2023-02-08T02:44:52.229Z,23.97
2023-02-08T02:47:46.611Z,21.33
2023-02-08T02:50:30.752Z,27.10
2023-02-08T02:53:22.556Z,19.70
2023-02-08T02:55:59.868Z,20.93
2023-02-08T02:58:28.839Z,23.77
2023-02-08T03:00:57.785Z,19.67
2023-02-08T03:03:27.685Z,23.17
2023-02-08T03:06:06.178Z,26.83
2023-02-08T03:08:50.041Z,26.37
2023-02-08T03:11:25.673Z,24.90
2023-02-08T03:14:19.256Z,23.00
2023-02-08T03:17:14.928Z,41.87
2023-02-08T03:20:00.433Z,26.40
2023-02-08T03:22:43.733Z,22.97
2023-02-08T03:25:20.871Z,23.83
2023-02-08T03:27:50.535Z,27.87
2023-02-08T03:30:34.093Z,23.33
2023-02-08T03:33:05.387Z,25.57
2023-02-08T03:35:38.240Z,24.17
2023-02-08T03:38:09.413Z,24.53
2023-02-08T03:40:45.580Z,25.10
2023-02-08T03:43:18.641Z,24.33
2023-02-08T03:45:50.956Z,24.70
2023-02-08T03:48:19.858Z,23.23
2023-02-08T03:50:51.496Z,21.93
2023-02-08T03:53:21.360Z,28.03
2023-02-08T03:55:51.697Z,24.90
2023-02-08T03:58:25.341Z,23.43
2023-02-08T04:01:20.528Z,24.47
2023-02-08T04:03:50.126Z,23.43
2023-02-08T04:06:17.250Z,22.20
2023-02-08T04:08:43.975Z,19.93
2023-02-08T04:11:10.720Z,20.67
2023-02-08T04:13:37.837Z,23.40
2023-02-08T04:16:05.027Z,22.60
2023-02-08T04:18:31.754Z,23.30
2023-02-08T04:20:58.377Z,28.10
2023-02-08T04:23:24.986Z,33.80
2023-02-08T04:25:51.686Z,34.67
2023-02-08T04:28:18.400Z,22.57
2023-02-08T04:30:45.266Z,23.80
2023-02-08T04:33:14.669Z,22.97
2023-02-08T04:35:42.602Z,22.10
2023-02-08T04:38:09.330Z,21.93
2023-02-08T04:40:36.151Z,21.63
2023-02-08T04:43:02.952Z,19.77
2023-02-08T04:45:32.062Z,20.23
2023-02-08T04:48:01.204Z,21.80
2023-02-08T04:50:28.595Z,24.67
2023-02-08T04:52:55.268Z,26.97
2023-02-08T04:55:22.169Z,26.00
2023-02-08T04:57:48.921Z,25.13
2023-02-08T05:00:16.014Z,23.57
2023-02-08T05:02:42.725Z,23.37
2023-02-08T05:05:09.442Z,22.83
2023-02-08T05:07:36.471Z,22.20
2023-02-08T05:10:04.761Z,24.97
2023-02-08T05:12:31.434Z,23.10
2023-02-08T05:14:58.098Z,27.20
2023-02-08T05:17:24.714Z,29.63
2023-02-08T05:19:51.365Z,31.30
2023-02-08T05:22:18.034Z,22.93
2023-02-08T05:24:44.696Z,25.57
2023-02-08T05:27:11.330Z,28.00
2023-02-08T05:29:37.954Z,24.80
2023-02-08T05:32:04.840Z,27.17
2023-02-08T05:34:31.572Z,25.87
2023-02-08T05:36:58.288Z,21.17
2023-02-08T05:39:24.916Z,20.47
2023-02-08T05:41:51.571Z,23.80
2023-02-08T05:44:18.262Z,25.83
2023-02-08T05:46:45.028Z,21.40
2023-02-08T05:49:12.083Z,19.50
2023-02-08T05:51:39.048Z,21.87
2023-02-08T05:54:05.938Z,21.20
2023-02-08T05:56:32.797Z,32.30
2023-02-08T05:59:03.647Z,22.93
2023-02-08T06:01:31.598Z,24.80
2023-02-08T06:04:00.001Z,23.07
2023-02-08T06:06:27.494Z,22.30
2023-02-08T06:08:54.691Z,21.20
2023-02-08T06:11:21.754Z,20.40
2023-02-08T06:13:48.538Z,18.77
2023-02-08T06:16:16.748Z,17.97
2023-02-08T06:18:44.965Z,22.10
2023-02-08T06:21:12.385Z,22.07
2023-02-08T06:23:39.095Z,17.30
2023-02-08T06:26:05.797Z,19.53
2023-02-08T06:28:32.525Z,20.63
2023-02-08T06:30:59.309Z,25.03
2023-02-08T06:33:26.019Z,20.50
2023-02-08T06:35:53.446Z,19.33
2023-02-08T06:38:20.694Z,19.80
2023-02-08T06:40:48.571Z,18.57
2023-02-08T06:43:15.810Z,19.30
2023-02-08T06:45:45.387Z,17.63
2023-02-08T06:48:12.847Z,18.83
2023-02-08T06:50:39.991Z,22.20
2023-02-08T06:53:06.863Z,19.17
2023-02-08T06:55:33.691Z,18.73
2023-02-08T06:58:00.324Z,20.03
2023-02-08T07:00:26.928Z,18.37
2023-02-08T07:02:53.595Z,17.80
2023-02-08T07:05:20.287Z,18.97
2023-02-08T07:07:48.576Z,19.43
2023-02-08T07:10:16.049Z,18.37
2023-02-08T07:12:42.859Z,17.43
2023-02-08T07:15:13.028Z,19.00
2023-02-08T07:17:39.832Z,16.27
2023-02-08T07:20:07.221Z,18.03
2023-02-08T07:22:33.908Z,17.80
2023-02-08T07:25:00.689Z,14.63
2023-02-08T07:27:27.654Z,15.97
2023-02-08T07:29:54.327Z,17.20
2023-02-08T07:32:20.947Z,16.93
2023-02-08T07:34:47.669Z,14.93
2023-02-08T07:37:14.348Z,19.13
2023-02-08T07:39:41.086Z,22.33
2023-02-08T07:42:09.955Z,14.60
2023-02-08T07:44:47.753Z,14.87
2023-02-08T07:47:14.449Z,17.53
2023-02-08T07:49:41.128Z,16.30
2023-02-08T07:52:07.894Z,17.13
2023-02-08T07:54:34.724Z,16.73
2023-02-08T07:57:03.463Z,14.67
2023-02-08T07:59:30.474Z,16.13
2023-02-08T08:01:57.273Z,18.37
2023-02-08T08:04:24.010Z,20.60
2023-02-08T08:06:51.473Z,20.17
2023-02-08T08:09:20.153Z,23.10
2023-02-08T08:11:46.760Z,22.47
2023-02-08T08:14:13.425Z,23.07
2023-02-08T08:16:40.392Z,22.30
2023-02-08T08:19:07.013Z,22.43
2023-02-08T08:21:33.615Z,20.53
2023-02-08T08:24:00.280Z,18.60
2023-02-08T08:26:27.006Z,27.27
2023-02-08T08:28:53.829Z,23.43
2023-02-08T08:31:22.127Z,24.47
2023-02-08T08:33:49.388Z,25.27
2023-02-08T08:36:16.173Z,23.63
2023-02-08T08:38:42.838Z,24.03
2023-02-08T08:41:16.921Z,26.07
2023-02-08T08:43:43.980Z,21.23
2023-02-08T08:46:10.843Z,20.17
2023-02-08T08:48:38.802Z,23.90
2023-02-08T08:51:05.956Z,24.07
2023-02-08T08:53:33.440Z,22.40
2023-02-08T08:56:00.432Z,23.77
2023-02-08T08:58:27.118Z,19.47
2023-02-08T09:00:55.695Z,21.50
2023-02-08T09:03:22.392Z,23.97
2023-02-08T09:05:49.023Z,20.20
2023-02-08T09:08:15.738Z,18.07
2023-02-08T09:10:42.642Z,23.00
2023-02-08T09:13:09.780Z,21.93
2023-02-08T09:15:40.342Z,15.40
2023-02-08T09:18:07.540Z,17.38
2023-02-08T09:20:37.180Z,17.97
2023-02-08T09:23:03.829Z,19.23
2023-02-08T09:25:30.710Z,17.65
2023-02-08T09:27:57.316Z,19.17
2023-02-08T09:30:23.980Z,19.27
2023-02-08T09:32:50.778Z,17.00
2023-02-08T09:35:17.523Z,21.33
2023-02-08T09:37:44.311Z,17.08
2023-02-08T09:40:26.173Z,15.38
2023-02-08T09:43:03.181Z,15.75
2023-02-08T09:45:59.326Z,20.80
2023-02-08T09:48:32.657Z,17.52
2023-02-08T09:51:28.316Z,17.90
2023-02-08T09:54:00.109Z,16.27
2023-02-08T09:56:40.340Z,14.80
2023-02-08T09:59:16.606Z,14.98
2023-02-08T10:01:44.337Z,22.60
2023-02-08T10:04:48.248Z,18.85
2023-02-08T10:07:15.017Z,16.50
2023-02-08T10:09:41.728Z,13.05
2023-02-08T10:12:21.506Z,18.55
2023-02-08T10:15:22.445Z,17.23
2023-02-08T10:17:57.137Z,13.27
2023-02-08T10:20:33.620Z,13.02
2023-02-08T10:23:22.609Z,11.93
2023-02-08T10:26:26.168Z,12.13
2023-02-08T10:28:55.815Z,12.20
2023-02-08T10:31:56.337Z,13.20
2023-02-08T10:34:41.537Z,11.45
2023-02-08T10:37:31.458Z,15.40
2023-02-08T10:40:12.965Z,10.43
2023-02-08T10:42:40.775Z,9.70
2023-02-08T10:45:24.514Z,11.05
2023-02-08T10:47:58.334Z,10.85
2023-02-08T10:50:41.349Z,10.40
2023-02-08T10:53:15.425Z,10.35
2023-02-08T10:55:46.216Z,10.07
2023-02-08T10:58:26.310Z,9.93
2023-02-08T11:00:55.000Z,11.93
2023-02-08T11:03:29.592Z,11.27
2023-02-08T11:05:56.807Z,10.50
2023-02-08T11:08:25.706Z,14.60
2023-02-08T11:11:02.841Z,11.13
2023-02-08T11:13:40.703Z,11.10
2023-02-08T11:16:12.035Z,10.32
2023-02-08T11:18:54.035Z,14.32
2023-02-08T11:21:26.367Z,10.35
2023-02-08T11:23:54.725Z,10.13
2023-02-08T11:26:23.899Z,11.52
2023-02-08T11:29:01.228Z,8.02
2023-02-08T11:31:28.708Z,10.38
2023-02-08T11:34:04.137Z,11.15
2023-02-08T11:36:32.997Z,11.48
2023-02-08T11:39:24.027Z,12.82
2023-02-08T11:41:54.748Z,10.27
2023-02-08T11:44:27.085Z,14.43
2023-02-08T11:46:54.867Z,11.75
2023-02-08T11:49:29.363Z,12.40
2023-02-08T11:51:56.596Z,10.77
2023-02-08T11:54:41.543Z,10.30
2023-02-08T11:57:19.213Z,15.45
2023-02-08T11:59:51.561Z,10.70
2023-02-08T12:02:37.713Z,11.82
2023-02-08T12:05:14.918Z,13.13
2023-02-08T12:08:11.305Z,12.52
2023-02-08T12:10:40.698Z,12.52
2023-02-08T12:13:23.158Z,14.02
2023-02-08T12:16:06.169Z,13.40
2023-02-08T12:19:03.082Z,12.73
2023-02-08T12:21:46.977Z,12.02
2023-02-08T12:24:35.563Z,14.45
2023-02-08T12:27:27.214Z,14.10
2023-02-08T12:30:12.538Z,13.30
2023-02-08T12:32:42.174Z,14.48
2023-02-08T12:35:39.970Z,10.90
2023-02-08T12:38:39.376Z,15.32
2023-02-08T12:41:28.442Z,11.48
2023-02-08T12:44:21.222Z,11.70
2023-02-08T12:47:09.255Z,10.82
2023-02-08T12:49:41.755Z,9.98
2023-02-08T12:52:41.354Z,10.80
2023-02-08T12:55:29.014Z,14.13
2023-02-08T12:58:11.747Z,16.35
2023-02-08T13:00:42.117Z,11.35
2023-02-08T13:03:47.677Z,12.00
2023-02-08T13:06:21.076Z,12.23
2023-02-08T13:08:57.789Z,11.13
2023-02-08T13:11:34.682Z,11.43
2023-02-08T13:14:25.986Z,8.20
2023-02-08T13:16:58.231Z,11.30
2023-02-08T13:19:51.086Z,10.18
2023-02-08T13:22:26.835Z,9.57
2023-02-08T13:25:06.312Z,8.13
2023-02-08T13:27:34.418Z,13.85
2023-02-08T13:30:01.734Z,8.90
2023-02-08T13:32:38.575Z,11.43
2023-02-08T13:35:27.478Z,12.77
2023-02-08T13:38:05.965Z,15.23
2023-02-08T13:40:35.157Z,8.10
2023-02-08T13:43:34.801Z,6.57
2023-02-08T13:46:03.230Z,8.02
2023-02-08T13:48:45.468Z,11.68
2023-02-08T13:51:51.713Z,9.27
2023-02-08T13:54:18.800Z,9.40
2023-02-08T13:56:51.753Z,9.48
2023-02-08T13:59:41.304Z,8.00
2023-02-08T14:02:18.798Z,10.32
2023-02-08T14:04:47.395Z,6.47
2023-02-08T14:07:49.872Z,6.53
2023-02-08T14:10:31.977Z,8.02
2023-02-08T14:13:09.103Z,6.00
2023-02-08T14:15:40.761Z,6.88
2023-02-08T14:18:26.377Z,8.43
2023-02-08T14:21:24.921Z,7.07
2023-02-08T14:24:01.307Z,8.23
2023-02-08T14:26:28.631Z,11.77
2023-02-08T14:28:58.881Z,5.72
2023-02-08T14:31:41.223Z,7.15
2023-02-08T14:34:34.880Z,9.13
2023-02-08T14:37:25.028Z,9.95
2023-02-08T14:40:23.637Z,7.30
2023-02-08T14:42:58.071Z,12.07
2023-02-08T14:45:32.382Z,5.97
2023-02-08T14:48:17.264Z,7.55
2023-02-08T14:51:12.106Z,7.05
2023-02-08T14:53:41.756Z,7.00
2023-02-08T14:56:18.740Z,10.30
2023-02-08T14:58:51.748Z,10.20
2023-02-08T15:01:25.020Z,8.65
2023-02-08T15:03:56.366Z,4.95
2023-02-08T15:06:36.651Z,6.30
2023-02-08T15:09:16.205Z,5.68
2023-02-08T15:11:43.092Z,7.22
2023-02-08T15:14:19.043Z,9.65
2023-02-08T15:16:46.432Z,6.30
2023-02-08T15:19:23.235Z,6.07
2023-02-08T15:21:50.121Z,13.98
2023-02-08T15:24:29.566Z,13.88
2023-02-08T15:26:57.820Z,11.00
2023-02-08T15:29:42.914Z,6.43
2023-02-08T15:32:16.805Z,9.80
2023-02-08T15:34:53.835Z,6.80
2023-02-08T15:37:21.348Z,5.55
2023-02-08T15:39:55.506Z,6.03
2023-02-08T15:42:26.245Z,8.98
2023-02-08T15:44:53.343Z,9.05
2023-02-08T15:47:29.889Z,10.02
2023-02-08T15:49:57.879Z,7.32
2023-02-08T15:52:27.588Z,8.32
2023-02-08T15:54:54.462Z,7.25
2023-02-08T15:57:48.214Z,4.53
2023-02-08T16:00:24.117Z,8.07
2023-02-08T16:02:55.171Z,7.82
2023-02-08T16:05:27.835Z,5.63
2023-02-08T16:07:55.570Z,5.95
2023-02-08T16:10:28.124Z,8.07
2023-02-08T16:12:58.486Z,7.10
2023-02-08T16:15:45.578Z,6.38
2023-02-08T16:18:31.118Z,9.27
2023-02-08T16:20:59.935Z,18.55
2023-02-08T16:23:32.467Z,12.90
2023-02-08T16:26:13.118Z,11.55
2023-02-08T16:28:40.156Z,18.55
2023-02-08T16:31:07.973Z,22.58
2023-02-08T16:33:37.251Z,11.88
2023-02-08T16:36:04.175Z,14.93
2023-02-08T16:38:33.837Z,10.85
2023-02-08T16:41:12.472Z,10.40
2023-02-08T16:43:44.128Z,13.80
2023-02-08T16:46:11.051Z,8.05
2023-02-08T16:48:40.607Z,7.68
2023-02-08T16:51:33.083Z,5.70
2023-02-08T16:54:09.549Z,6.03
2023-02-08T16:56:37.136Z,6.82
2023-02-08T16:59:04.135Z,8.45
2023-02-08T17:01:31.872Z,8.07
2023-02-08T17:03:58.880Z,6.80
2023-02-08T17:06:30.170Z,9.05
2023-02-08T17:08:58.312Z,6.38
2023-02-08T17:11:25.420Z,7.95
2023-02-08T17:13:52.343Z,8.73
2023-02-08T17:16:22.397Z,8.52
2023-02-08T17:18:49.911Z,9.75
2023-02-08T17:21:16.961Z,11.48
2023-02-08T17:23:44.122Z,13.82
2023-02-08T17:26:15.686Z,13.65
2023-02-08T17:28:43.429Z,10.95
2023-02-08T17:31:12.943Z,9.48
2023-02-08T17:33:40.852Z,14.77
2023-02-08T17:36:09.769Z,10.38
2023-02-08T17:38:39.977Z,9.48
2023-02-08T17:41:09.581Z,9.65
2023-02-08T17:43:37.187Z,9.35
2023-02-08T17:46:16.601Z,10.10
2023-02-08T17:48:43.594Z,11.73
2023-02-08T17:51:22.477Z,10.80
2023-02-08T17:53:49.565Z,9.75
2023-02-08T17:56:19.293Z,12.52
2023-02-08T17:58:50.124Z,13.50
2023-02-08T18:01:23.307Z,10.00
2023-02-08T18:03:51.531Z,11.43
2023-02-08T18:06:18.886Z,6.63
2023-02-08T18:08:46.377Z,8.73
2023-02-08T18:11:19.649Z,10.85
2023-02-08T18:13:51.236Z,10.90
2023-02-08T18:16:20.947Z,8.40
2023-02-08T18:18:47.866Z,6.63
2023-02-08T18:21:22.641Z,10.30
2023-02-08T18:23:49.899Z,9.25
2023-02-08T18:26:19.361Z,14.98
2023-02-08T18:28:46.369Z,10.82
2023-02-08T18:31:16.134Z,11.52
2023-02-08T18:33:43.813Z,13.38
2023-02-08T18:36:11.534Z,11.60
2023-02-08T18:38:40.127Z,9.75
2023-02-08T18:41:10.863Z,10.00
2023-02-08T18:43:39.110Z,11.80
2023-02-08T18:46:11.401Z,9.95
2023-02-08T18:48:41.664Z,9.48
2023-02-08T18:51:10.236Z,13.95
2023-02-08T18:53:40.137Z,8.68
2023-02-08T18:56:10.090Z,8.20
2023-02-08T18:58:36.989Z,6.63
2023-02-08T19:01:13.710Z,10.05
2023-02-08T19:03:40.956Z,11.13
2023-02-08T19:06:10.866Z,6.72
2023-02-08T19:08:40.135Z,12.32
2023-02-08T19:11:27.762Z,7.18
2023-02-08T19:13:57.105Z,7.35
2023-02-08T19:16:24.727Z,7.50
2023-02-08T19:18:53.016Z,8.93
2023-02-08T19:21:20.558Z,9.07
2023-02-08T19:23:49.200Z,8.77
2023-02-08T19:26:22.642Z,10.52
2023-02-08T19:28:50.661Z,12.18
2023-02-08T19:31:20.116Z,7.80
2023-02-08T19:33:50.182Z,9.82
2023-02-08T19:36:22.260Z,10.77
2023-02-08T19:38:50.114Z,9.52
2023-02-08T19:41:22.381Z,12.93
2023-02-08T19:43:49.113Z,11.65
2023-02-08T19:46:22.171Z,10.75
2023-02-08T19:48:53.568Z,11.32
2023-02-08T19:51:20.470Z,8.63
2023-02-08T19:53:47.393Z,11.25
2023-02-08T19:56:16.939Z,12.07
2023-02-08T19:58:44.878Z,12.68
2023-02-08T20:01:20.510Z,22.80
2023-02-08T20:03:48.971Z,19.85
2023-02-08T20:06:22.853Z,14.38
2023-02-08T20:08:49.561Z,13.98
2023-02-08T20:11:31.203Z,14.65
2023-02-08T20:14:00.085Z,15.05
2023-02-08T20:16:31.432Z,12.85
2023-02-08T20:18:59.357Z,12.55
2023-02-08T20:21:26.628Z,12.52
2023-02-08T20:23:53.321Z,13.65
2023-02-08T20:26:22.770Z,12.85
2023-02-08T20:28:55.521Z,17.58
2023-02-08T20:31:28.628Z,13.18
2023-02-08T20:33:59.650Z,12.88
2023-02-08T20:36:29.336Z,12.27
2023-02-08T20:38:58.273Z,17.25
2023-02-08T20:41:27.070Z,13.07
2023-02-08T20:43:54.292Z,18.38
2023-02-08T20:46:27.446Z,15.60
2023-02-08T20:48:55.932Z,16.83
2023-02-08T20:51:25.695Z,13.38
2023-02-08T20:53:54.122Z,15.82
2023-02-08T20:56:24.122Z,14.40
2023-02-08T20:58:50.912Z,12.07
2023-02-08T21:01:23.287Z,10.77
2023-02-08T21:03:52.130Z,16.33
2023-02-08T21:06:21.841Z,13.10
2023-02-08T21:08:52.092Z,17.73
2023-02-08T21:11:21.441Z,14.90
2023-02-08T21:13:48.484Z,9.48
2023-02-08T21:16:16.013Z,16.00
2023-02-08T21:18:42.778Z,13.50
2023-02-08T21:21:10.338Z,15.25
2023-02-08T21:23:38.129Z,18.50
2023-02-08T21:26:07.116Z,13.90
2023-02-08T21:28:34.887Z,10.43
2023-02-08T21:31:06.982Z,11.48
2023-02-08T21:33:34.298Z,9.07
2023-02-08T21:36:03.031Z,10.93
2023-02-08T21:38:30.054Z,10.27
2023-02-08T21:40:56.733Z,10.27
2023-02-08T21:43:23.385Z,7.95
2023-02-08T21:45:50.075Z,8.65
2023-02-08T21:48:16.702Z,7.95
2023-02-08T21:51:01.937Z,7.55
2023-02-08T21:53:47.344Z,7.63
2023-02-08T21:56:14.120Z,9.50
2023-02-08T21:58:40.811Z,8.38
2023-02-08T22:01:07.469Z,10.13
2023-02-08T22:03:34.457Z,7.18
2023-02-08T22:06:20.065Z,10.77
2023-02-08T22:08:46.730Z,7.22
2023-02-08T22:11:16.199Z,9.65
2023-02-08T22:13:43.802Z,10.70
2023-02-08T22:16:11.138Z,5.82
2023-02-08T22:18:41.208Z,8.50
2023-02-08T22:21:08.466Z,7.28
2023-02-08T22:23:35.268Z,8.27
2023-02-08T22:26:07.617Z,10.50
2023-02-08T22:28:34.430Z,11.52
2023-02-08T22:31:01.722Z,11.97
2023-02-08T22:33:29.052Z,16.55
2023-02-08T22:35:56.009Z,15.90
2023-02-08T22:38:23.690Z,13.20
2023-02-08T22:40:50.620Z,12.50
2023-02-08T22:43:17.557Z,13.55
2023-02-08T22:45:44.316Z,13.60
2023-02-08T22:48:11.042Z,8.40
2023-02-08T22:50:38.815Z,8.68
2023-02-08T22:53:05.477Z,7.57
2023-02-08T22:55:32.155Z,8.32
2023-02-08T22:57:58.801Z,7.82
2023-02-08T23:00:25.535Z,5.57
2023-02-08T23:02:52.204Z,5.35
2023-02-08T23:05:18.976Z,9.23
2023-02-08T23:07:45.679Z,8.55
2023-02-08T23:10:12.416Z,5.20
2023-02-08T23:12:39.846Z,8.32
2023-02-08T23:15:06.960Z,6.37
2023-02-08T23:17:35.905Z,6.53
2023-02-08T23:20:02.710Z,5.03
2023-02-08T23:22:29.399Z,6.33
2023-02-08T23:24:56.162Z,6.18
2023-02-08T23:27:22.806Z,6.50
2023-02-08T23:29:49.412Z,6.00
2023-02-08T23:32:16.056Z,9.80
2023-02-08T23:34:42.717Z,9.23
2023-02-08T23:37:09.342Z,6.47
2023-02-08T23:39:37.122Z,6.50
2023-02-08T23:42:04.034Z,7.97
2023-02-08T23:44:30.732Z,6.65
2023-02-08T23:46:57.515Z,7.38
2023-02-08T23:49:24.220Z,7.53
2023-02-08T23:51:52.985Z,7.07
2023-02-08T23:54:19.686Z,9.38
2023-02-08T23:56:46.414Z,7.38
2023-02-08T23:59:13.084Z,8.50
